sensor_id;sensor_type;location;lat;lon;timestamp;P1;durP1;ratioP1;P2;durP2;ratioP2
52946;SDS011;45776;40.400;17.260;2022-10-16T00:00:56;28.67;;;15.77;;
52946;SDS011;45776;40.400;17.260;2022-10-16T00:03:21;28.92;;;15.45;;
52946;SDS011;45776;40.400;17.260;2022-10-16T00:05:46;31.63;;;16.08;;
52946;SDS011;45776;40.400;17.260;2022-10-16T00:08:11;28.42;;;16.13;;
52946;SDS011;45776;40.400;17.260;2022-10-16T00:10:37;31.45;;;17.73;;
52946;SDS011;45776;40.400;17.260;2022-10-16T00:13:03;30.55;;;16.80;;
52946;SDS011;45776;40.400;17.260;2022-10-16T00:15:29;29.23;;;16.15;;
52946;SDS011;45776;40.400;17.260;2022-10-16T00:17:54;26.88;;;15.25;;
52946;SDS011;45776;40.400;17.260;2022-10-16T00:20:20;29.50;;;15.57;;
52946;SDS011;45776;40.400;17.260;2022-10-16T00:22:45;28.50;;;16.10;;
52946;SDS011;45776;40.400;17.260;2022-10-16T00:25:10;28.50;;;16.63;;
52946;SDS011;45776;40.400;17.260;2022-10-16T00:27:36;29.80;;;16.98;;
52946;SDS011;45776;40.400;17.260;2022-10-16T00:30:01;30.13;;;18.23;;
52946;SDS011;45776;40.400;17.260;2022-10-16T00:32:26;29.73;;;17.40;;
52946;SDS011;45776;40.400;17.260;2022-10-16T00:34:52;29.08;;;16.30;;
52946;SDS011;45776;40.400;17.260;2022-10-16T00:37:19;28.98;;;17.00;;
52946;SDS011;45776;40.400;17.260;2022-10-16T00:39:45;31.15;;;16.00;;
52946;SDS011;45776;40.400;17.260;2022-10-16T00:42:17;30.02;;;16.73;;
52946;SDS011;45776;40.400;17.260;2022-10-16T00:47:11;26.27;;;15.40;;
52946;SDS011;45776;40.400;17.260;2022-10-16T00:49:37;26.67;;;16.13;;
52946;SDS011;45776;40.400;17.260;2022-10-16T00:52:03;30.67;;;16.65;;
52946;SDS011;45776;40.400;17.260;2022-10-16T00:54:29;30.73;;;17.15;;
52946;SDS011;45776;40.400;17.260;2022-10-16T00:56:56;30.67;;;17.38;;
52946;SDS011;45776;40.400;17.260;2022-10-16T00:59:24;31.90;;;18.27;;
52946;SDS011;45776;40.400;17.260;2022-10-16T01:01:50;32.75;;;17.95;;
52946;SDS011;45776;40.400;17.260;2022-10-16T01:04:15;31.58;;;18.17;;
52946;SDS011;45776;40.400;17.260;2022-10-16T01:11:56;32.42;;;16.50;;
52946;SDS011;45776;40.400;17.260;2022-10-16T01:17:02;31.30;;;16.70;;
52946;SDS011;45776;40.400;17.260;2022-10-16T01:21:57;30.05;;;17.77;;
52946;SDS011;45776;40.400;17.260;2022-10-16T01:24:39;30.80;;;17.55;;
52946;SDS011;45776;40.400;17.260;2022-10-16T01:35:26;26.55;;;14.52;;
52946;SDS011;45776;40.400;17.260;2022-10-16T01:40:18;28.08;;;15.98;;
52946;SDS011;45776;40.400;17.260;2022-10-16T01:42:46;30.20;;;16.42;;
52946;SDS011;45776;40.400;17.260;2022-10-16T01:45:13;31.00;;;15.82;;
52946;SDS011;45776;40.400;17.260;2022-10-16T01:47:39;27.65;;;15.27;;
52946;SDS011;45776;40.400;17.260;2022-10-16T01:50:05;25.45;;;14.82;;
52946;SDS011;45776;40.400;17.260;2022-10-16T01:52:31;22.70;;;13.85;;
52946;SDS011;45776;40.400;17.260;2022-10-16T01:54:58;26.67;;;14.30;;
52946;SDS011;45776;40.400;17.260;2022-10-16T01:57:24;28.42;;;14.68;;
52946;SDS011;45776;40.400;17.260;2022-10-16T01:59:52;26.83;;;14.90;;
52946;SDS011;45776;40.400;17.260;2022-10-16T02:02:18;26.50;;;15.30;;
52946;SDS011;45776;40.400;17.260;2022-10-16T02:07:10;26.83;;;15.60;;
52946;SDS011;45776;40.400;17.260;2022-10-16T02:09:35;31.63;;;16.67;;
52946;SDS011;45776;40.400;17.260;2022-10-16T02:12:03;33.92;;;18.30;;
52946;SDS011;45776;40.400;17.260;2022-10-16T02:14:31;29.10;;;16.67;;
52946;SDS011;45776;40.400;17.260;2022-10-16T02:16:57;29.48;;;16.77;;
52946;SDS011;45776;40.400;17.260;2022-10-16T02:19:22;27.88;;;16.90;;
52946;SDS011;45776;40.400;17.260;2022-10-16T02:21:51;27.10;;;15.85;;
52946;SDS011;45776;40.400;17.260;2022-10-16T02:24:20;29.83;;;16.85;;
52946;SDS011;45776;40.400;17.260;2022-10-16T02:29:25;26.95;;;16.15;;
52946;SDS011;45776;40.400;17.260;2022-10-16T02:31:53;29.17;;;15.48;;
52946;SDS011;45776;40.400;17.260;2022-10-16T02:34:20;29.10;;;15.32;;
52946;SDS011;45776;40.400;17.260;2022-10-16T02:36:46;27.00;;;15.18;;
52946;SDS011;45776;40.400;17.260;2022-10-16T02:39:12;31.95;;;15.15;;
52946;SDS011;45776;40.400;17.260;2022-10-16T02:41:38;27.25;;;15.90;;
52946;SDS011;45776;40.400;17.260;2022-10-16T02:44:03;26.65;;;15.32;;
52946;SDS011;45776;40.400;17.260;2022-10-16T02:46:29;25.67;;;14.65;;
52946;SDS011;45776;40.400;17.260;2022-10-16T02:48:54;27.50;;;14.82;;
52946;SDS011;45776;40.400;17.260;2022-10-16T02:51:19;26.08;;;15.15;;
52946;SDS011;45776;40.400;17.260;2022-10-16T02:53:45;28.90;;;15.45;;
52946;SDS011;45776;40.400;17.260;2022-10-16T02:56:10;27.63;;;16.02;;
52946;SDS011;45776;40.400;17.260;2022-10-16T02:58:35;22.95;;;12.80;;
52946;SDS011;45776;40.400;17.260;2022-10-16T03:01:01;25.88;;;13.77;;
52946;SDS011;45776;40.400;17.260;2022-10-16T03:03:26;25.60;;;14.52;;
52946;SDS011;45776;40.400;17.260;2022-10-16T03:05:51;24.98;;;15.10;;
52946;SDS011;45776;40.400;17.260;2022-10-16T03:08:17;24.48;;;14.57;;
52946;SDS011;45776;40.400;17.260;2022-10-16T03:10:48;23.55;;;14.15;;
52946;SDS011;45776;40.400;17.260;2022-10-16T03:13:13;27.33;;;15.15;;
52946;SDS011;45776;40.400;17.260;2022-10-16T03:15:38;24.20;;;14.10;;
52946;SDS011;45776;40.400;17.260;2022-10-16T03:18:04;23.65;;;14.90;;
52946;SDS011;45776;40.400;17.260;2022-10-16T03:20:29;26.75;;;13.77;;
52946;SDS011;45776;40.400;17.260;2022-10-16T03:22:54;27.20;;;13.77;;
52946;SDS011;45776;40.400;17.260;2022-10-16T03:25:19;28.17;;;15.50;;
52946;SDS011;45776;40.400;17.260;2022-10-16T03:27:45;27.63;;;14.68;;
52946;SDS011;45776;40.400;17.260;2022-10-16T03:30:10;26.98;;;14.57;;
52946;SDS011;45776;40.400;17.260;2022-10-16T03:32:35;26.90;;;14.27;;
52946;SDS011;45776;40.400;17.260;2022-10-16T03:35:01;26.88;;;15.15;;
52946;SDS011;45776;40.400;17.260;2022-10-16T03:37:26;28.67;;;15.73;;
52946;SDS011;45776;40.400;17.260;2022-10-16T03:39:51;23.60;;;14.75;;
52946;SDS011;45776;40.400;17.260;2022-10-16T03:42:17;26.52;;;15.75;;
52946;SDS011;45776;40.400;17.260;2022-10-16T03:44:42;28.98;;;16.33;;
52946;SDS011;45776;40.400;17.260;2022-10-16T03:47:08;32.33;;;17.35;;
52946;SDS011;45776;40.400;17.260;2022-10-16T03:49:33;28.75;;;15.80;;
52946;SDS011;45776;40.400;17.260;2022-10-16T03:51:58;31.25;;;16.17;;
52946;SDS011;45776;40.400;17.260;2022-10-16T03:54:23;31.23;;;16.38;;
52946;SDS011;45776;40.400;17.260;2022-10-16T03:56:49;26.90;;;15.15;;
52946;SDS011;45776;40.400;17.260;2022-10-16T03:59:14;29.23;;;15.63;;
52946;SDS011;45776;40.400;17.260;2022-10-16T04:01:39;33.08;;;17.25;;
52946;SDS011;45776;40.400;17.260;2022-10-16T04:04:05;35.78;;;17.67;;
52946;SDS011;45776;40.400;17.260;2022-10-16T04:06:30;29.70;;;16.40;;
52946;SDS011;45776;40.400;17.260;2022-10-16T04:08:55;32.47;;;17.35;;
52946;SDS011;45776;40.400;17.260;2022-10-16T04:11:21;29.85;;;16.55;;
52946;SDS011;45776;40.400;17.260;2022-10-16T04:13:46;30.20;;;16.27;;
52946;SDS011;45776;40.400;17.260;2022-10-16T04:16:11;31.40;;;15.55;;
52946;SDS011;45776;40.400;17.260;2022-10-16T04:18:37;26.38;;;15.48;;
52946;SDS011;45776;40.400;17.260;2022-10-16T04:21:05;26.52;;;16.13;;
52946;SDS011;45776;40.400;17.260;2022-10-16T04:23:31;35.00;;;15.68;;
52946;SDS011;45776;40.400;17.260;2022-10-16T04:25:56;26.33;;;15.20;;
52946;SDS011;45776;40.400;17.260;2022-10-16T04:28:22;31.58;;;16.75;;
52946;SDS011;45776;40.400;17.260;2022-10-16T04:30:47;26.52;;;15.57;;
52946;SDS011;45776;40.400;17.260;2022-10-16T04:33:12;28.42;;;15.65;;
52946;SDS011;45776;40.400;17.260;2022-10-16T04:35:38;28.35;;;15.77;;
52946;SDS011;45776;40.400;17.260;2022-10-16T04:38:03;27.88;;;15.93;;
52946;SDS011;45776;40.400;17.260;2022-10-16T04:40:29;29.58;;;16.35;;
52946;SDS011;45776;40.400;17.260;2022-10-16T04:42:57;25.90;;;15.43;;
52946;SDS011;45776;40.400;17.260;2022-10-16T04:45:23;28.33;;;16.15;;
52946;SDS011;45776;40.400;17.260;2022-10-16T04:47:48;28.42;;;14.48;;
52946;SDS011;45776;40.400;17.260;2022-10-16T04:50:13;26.65;;;15.55;;
52946;SDS011;45776;40.400;17.260;2022-10-16T04:52:39;31.00;;;16.60;;
52946;SDS011;45776;40.400;17.260;2022-10-16T04:55:04;26.45;;;16.10;;
52946;SDS011;45776;40.400;17.260;2022-10-16T04:57:30;30.08;;;14.13;;
52946;SDS011;45776;40.400;17.260;2022-10-16T04:59:55;26.08;;;14.73;;
52946;SDS011;45776;40.400;17.260;2022-10-16T05:02:20;26.85;;;14.73;;
52946;SDS011;45776;40.400;17.260;2022-10-16T05:04:46;28.67;;;16.20;;
52946;SDS011;45776;40.400;17.260;2022-10-16T05:07:11;26.83;;;14.90;;
52946;SDS011;45776;40.400;17.260;2022-10-16T05:09:36;28.80;;;15.65;;
52946;SDS011;45776;40.400;17.260;2022-10-16T05:12:02;28.92;;;15.32;;
52946;SDS011;45776;40.400;17.260;2022-10-16T05:14:28;28.15;;;15.57;;
52946;SDS011;45776;40.400;17.260;2022-10-16T05:16:53;29.63;;;16.80;;
52946;SDS011;45776;40.400;17.260;2022-10-16T05:19:19;30.58;;;15.80;;
52946;SDS011;45776;40.400;17.260;2022-10-16T05:21:44;32.80;;;17.77;;
52946;SDS011;45776;40.400;17.260;2022-10-16T05:24:09;34.95;;;17.65;;
52946;SDS011;45776;40.400;17.260;2022-10-16T05:26:35;31.75;;;16.83;;
52946;SDS011;45776;40.400;17.260;2022-10-16T05:29:00;30.77;;;16.25;;
52946;SDS011;45776;40.400;17.260;2022-10-16T05:31:25;37.20;;;18.05;;
52946;SDS011;45776;40.400;17.260;2022-10-16T05:33:51;30.42;;;17.17;;
52946;SDS011;45776;40.400;17.260;2022-10-16T05:36:16;31.50;;;17.90;;
52946;SDS011;45776;40.400;17.260;2022-10-16T05:38:43;32.95;;;17.75;;
52946;SDS011;45776;40.400;17.260;2022-10-16T05:41:08;33.85;;;17.80;;
52946;SDS011;45776;40.400;17.260;2022-10-16T05:43:34;32.00;;;18.05;;
52946;SDS011;45776;40.400;17.260;2022-10-16T05:48:24;36.13;;;18.23;;
52946;SDS011;45776;40.400;17.260;2022-10-16T05:50:59;33.25;;;17.88;;
52946;SDS011;45776;40.400;17.260;2022-10-16T05:53:26;36.05;;;18.08;;
52946;SDS011;45776;40.400;17.260;2022-10-16T05:55:52;35.28;;;18.02;;
52946;SDS011;45776;40.400;17.260;2022-10-16T05:58:17;32.85;;;17.08;;
52946;SDS011;45776;40.400;17.260;2022-10-16T06:00:42;33.13;;;18.13;;
52946;SDS011;45776;40.400;17.260;2022-10-16T06:03:08;43.08;;;19.60;;
52946;SDS011;45776;40.400;17.260;2022-10-16T06:05:33;34.03;;;17.23;;
52946;SDS011;45776;40.400;17.260;2022-10-16T06:07:58;34.35;;;17.55;;
52946;SDS011;45776;40.400;17.260;2022-10-16T06:10:24;29.02;;;16.55;;
52946;SDS011;45776;40.400;17.260;2022-10-16T06:12:49;33.10;;;17.00;;
52946;SDS011;45776;40.400;17.260;2022-10-16T06:15:14;32.42;;;16.23;;
52946;SDS011;45776;40.400;17.260;2022-10-16T06:17:39;29.58;;;15.90;;
52946;SDS011;45776;40.400;17.260;2022-10-16T06:20:05;29.08;;;16.63;;
52946;SDS011;45776;40.400;17.260;2022-10-16T06:22:31;30.92;;;17.92;;
52946;SDS011;45776;40.400;17.260;2022-10-16T06:24:56;31.42;;;17.30;;
52946;SDS011;45776;40.400;17.260;2022-10-16T06:27:21;33.30;;;17.98;;
52946;SDS011;45776;40.400;17.260;2022-10-16T06:29:47;32.35;;;18.80;;
52946;SDS011;45776;40.400;17.260;2022-10-16T06:32:12;34.67;;;18.60;;
52946;SDS011;45776;40.400;17.260;2022-10-16T06:34:37;34.00;;;17.70;;
52946;SDS011;45776;40.400;17.260;2022-10-16T06:37:05;31.95;;;17.70;;
52946;SDS011;45776;40.400;17.260;2022-10-16T06:39:30;32.60;;;18.67;;
52946;SDS011;45776;40.400;17.260;2022-10-16T06:41:55;33.97;;;19.25;;
52946;SDS011;45776;40.400;17.260;2022-10-16T06:44:21;31.70;;;18.58;;
52946;SDS011;45776;40.400;17.260;2022-10-16T06:46:46;35.53;;;20.23;;
52946;SDS011;45776;40.400;17.260;2022-10-16T06:49:11;36.97;;;19.88;;
52946;SDS011;45776;40.400;17.260;2022-10-16T06:51:36;35.53;;;19.70;;
52946;SDS011;45776;40.400;17.260;2022-10-16T06:54:05;37.67;;;20.45;;
52946;SDS011;45776;40.400;17.260;2022-10-16T06:56:31;35.95;;;19.08;;
52946;SDS011;45776;40.400;17.260;2022-10-16T06:58:57;39.05;;;19.88;;
52946;SDS011;45776;40.400;17.260;2022-10-16T07:01:23;34.63;;;19.30;;
52946;SDS011;45776;40.400;17.260;2022-10-16T07:03:48;33.10;;;18.25;;
52946;SDS011;45776;40.400;17.260;2022-10-16T07:06:16;37.05;;;20.52;;
52946;SDS011;45776;40.400;17.260;2022-10-16T07:08:42;33.85;;;18.58;;
52946;SDS011;45776;40.400;17.260;2022-10-16T07:11:08;37.97;;;20.48;;
52946;SDS011;45776;40.400;17.260;2022-10-16T07:13:35;34.85;;;19.73;;
52946;SDS011;45776;40.400;17.260;2022-10-16T07:16:07;37.33;;;19.95;;
52946;SDS011;45776;40.400;17.260;2022-10-16T07:18:32;36.28;;;19.20;;
52946;SDS011;45776;40.400;17.260;2022-10-16T07:23:29;40.05;;;21.60;;
52946;SDS011;45776;40.400;17.260;2022-10-16T07:25:55;37.22;;;20.15;;
52946;SDS011;45776;40.400;17.260;2022-10-16T07:28:20;33.28;;;18.80;;
52946;SDS011;45776;40.400;17.260;2022-10-16T07:30:45;38.33;;;20.48;;
52946;SDS011;45776;40.400;17.260;2022-10-16T07:33:11;38.10;;;21.27;;
52946;SDS011;45776;40.400;17.260;2022-10-16T07:35:36;38.15;;;21.20;;
52946;SDS011;45776;40.400;17.260;2022-10-16T07:38:01;39.30;;;21.33;;
52946;SDS011;45776;40.400;17.260;2022-10-16T07:40:26;33.78;;;19.50;;
52946;SDS011;45776;40.400;17.260;2022-10-16T07:42:52;35.88;;;19.05;;
52946;SDS011;45776;40.400;17.260;2022-10-16T07:45:17;35.47;;;18.95;;
52946;SDS011;45776;40.400;17.260;2022-10-16T07:47:42;34.08;;;19.63;;
52946;SDS011;45776;40.400;17.260;2022-10-16T07:50:08;36.55;;;20.67;;
52946;SDS011;45776;40.400;17.260;2022-10-16T07:52:33;31.75;;;19.67;;
52946;SDS011;45776;40.400;17.260;2022-10-16T07:54:58;38.35;;;20.35;;
52946;SDS011;45776;40.400;17.260;2022-10-16T07:57:23;32.35;;;19.40;;
52946;SDS011;45776;40.400;17.260;2022-10-16T07:59:49;34.63;;;19.15;;
52946;SDS011;45776;40.400;17.260;2022-10-16T08:02:14;32.58;;;18.63;;
52946;SDS011;45776;40.400;17.260;2022-10-16T08:04:39;34.03;;;18.92;;
52946;SDS011;45776;40.400;17.260;2022-10-16T08:07:06;31.85;;;18.52;;
52946;SDS011;45776;40.400;17.260;2022-10-16T08:09:31;33.35;;;19.73;;
52946;SDS011;45776;40.400;17.260;2022-10-16T08:11:56;35.13;;;19.85;;
52946;SDS011;45776;40.400;17.260;2022-10-16T08:14:22;34.20;;;19.35;;
52946;SDS011;45776;40.400;17.260;2022-10-16T08:16:47;33.40;;;18.92;;
52946;SDS011;45776;40.400;17.260;2022-10-16T08:19:12;33.28;;;18.42;;
52946;SDS011;45776;40.400;17.260;2022-10-16T08:21:37;31.90;;;18.52;;
52946;SDS011;45776;40.400;17.260;2022-10-16T08:24:03;25.45;;;16.17;;
52946;SDS011;45776;40.400;17.260;2022-10-16T08:26:28;30.20;;;16.92;;
52946;SDS011;45776;40.400;17.260;2022-10-16T08:28:54;28.35;;;17.25;;
52946;SDS011;45776;40.400;17.260;2022-10-16T08:31:19;31.38;;;17.95;;
52946;SDS011;45776;40.400;17.260;2022-10-16T08:33:45;26.92;;;16.08;;
52946;SDS011;45776;40.400;17.260;2022-10-16T08:36:12;25.13;;;15.23;;
52946;SDS011;45776;40.400;17.260;2022-10-16T08:38:38;26.25;;;15.40;;
52946;SDS011;45776;40.400;17.260;2022-10-16T08:46:24;31.02;;;17.17;;
52946;SDS011;45776;40.400;17.260;2022-10-16T08:48:52;31.08;;;17.45;;
52946;SDS011;45776;40.400;17.260;2022-10-16T08:51:19;30.27;;;17.52;;
52946;SDS011;45776;40.400;17.260;2022-10-16T08:53:50;31.35;;;17.50;;
52946;SDS011;45776;40.400;17.260;2022-10-16T08:56:17;28.80;;;17.42;;
52946;SDS011;45776;40.400;17.260;2022-10-16T08:58:42;30.92;;;18.38;;
52946;SDS011;45776;40.400;17.260;2022-10-16T09:01:11;29.95;;;17.20;;
52946;SDS011;45776;40.400;17.260;2022-10-16T09:08:34;31.25;;;17.65;;
52946;SDS011;45776;40.400;17.260;2022-10-16T09:11:26;26.92;;;16.50;;
52946;SDS011;45776;40.400;17.260;2022-10-16T09:13:54;26.15;;;16.45;;
52946;SDS011;45776;40.400;17.260;2022-10-16T09:16:36;28.80;;;16.23;;
52946;SDS011;45776;40.400;17.260;2022-10-16T09:21:41;29.77;;;17.37;;
52946;SDS011;45776;40.400;17.260;2022-10-16T09:24:12;29.17;;;16.25;;
52946;SDS011;45776;40.400;17.260;2022-10-16T09:26:38;28.15;;;15.60;;
52946;SDS011;45776;40.400;17.260;2022-10-16T09:29:03;29.73;;;17.35;;
52946;SDS011;45776;40.400;17.260;2022-10-16T09:31:29;27.65;;;16.08;;
52946;SDS011;45776;40.400;17.260;2022-10-16T09:33:55;28.63;;;16.13;;
52946;SDS011;45776;40.400;17.260;2022-10-16T09:36:23;27.70;;;15.18;;
52946;SDS011;45776;40.400;17.260;2022-10-16T09:38:48;28.83;;;16.10;;
52946;SDS011;45776;40.400;17.260;2022-10-16T09:41:21;27.15;;;14.60;;
52946;SDS011;45776;40.400;17.260;2022-10-16T09:46:22;23.88;;;14.95;;
52946;SDS011;45776;40.400;17.260;2022-10-16T09:48:49;27.42;;;15.13;;
52946;SDS011;45776;40.400;17.260;2022-10-16T09:51:20;26.23;;;15.60;;
52946;SDS011;45776;40.400;17.260;2022-10-16T09:53:47;26.48;;;15.25;;
52946;SDS011;45776;40.400;17.260;2022-10-16T09:56:21;24.67;;;14.02;;
52946;SDS011;45776;40.400;17.260;2022-10-16T09:58:50;27.10;;;15.00;;
52946;SDS011;45776;40.400;17.260;2022-10-16T10:01:16;27.23;;;15.50;;
52946;SDS011;45776;40.400;17.260;2022-10-16T10:03:42;25.55;;;14.77;;
52946;SDS011;45776;40.400;17.260;2022-10-16T10:14:25;25.58;;;14.85;;
52946;SDS011;45776;40.400;17.260;2022-10-16T10:16:52;23.73;;;14.60;;
52946;SDS011;45776;40.400;17.260;2022-10-16T10:19:22;29.73;;;15.90;;
52946;SDS011;45776;40.400;17.260;2022-10-16T10:21:48;27.60;;;14.75;;
52946;SDS011;45776;40.400;17.260;2022-10-16T10:24:14;23.73;;;14.90;;
52946;SDS011;45776;40.400;17.260;2022-10-16T10:27:03;23.42;;;14.57;;
52946;SDS011;45776;40.400;17.260;2022-10-16T10:31:55;22.63;;;13.00;;
52946;SDS011;45776;40.400;17.260;2022-10-16T10:34:45;22.92;;;13.93;;
52946;SDS011;45776;40.400;17.260;2022-10-16T10:39:43;26.38;;;14.05;;
52946;SDS011;45776;40.400;17.260;2022-10-16T10:45:00;23.30;;;13.43;;
52946;SDS011;45776;40.400;17.260;2022-10-16T10:52:49;23.20;;;13.95;;
52946;SDS011;45776;40.400;17.260;2022-10-16T10:55:27;21.90;;;13.45;;
52946;SDS011;45776;40.400;17.260;2022-10-16T11:05:19;23.20;;;14.38;;
52946;SDS011;45776;40.400;17.260;2022-10-16T11:07:50;21.42;;;13.50;;
52946;SDS011;45776;40.400;17.260;2022-10-16T11:10:21;21.83;;;13.77;;
52946;SDS011;45776;40.400;17.260;2022-10-16T11:12:50;19.98;;;12.90;;
52946;SDS011;45776;40.400;17.260;2022-10-16T11:15:25;22.08;;;14.90;;
52946;SDS011;45776;40.400;17.260;2022-10-16T11:20:25;21.23;;;13.45;;
52946;SDS011;45776;40.400;17.260;2022-10-16T11:23:02;20.67;;;13.98;;
52946;SDS011;45776;40.400;17.260;2022-10-16T11:25:30;23.00;;;13.48;;
52946;SDS011;45776;40.400;17.260;2022-10-16T11:30:22;19.77;;;13.23;;
52946;SDS011;45776;40.400;17.260;2022-10-16T11:35:21;22.25;;;13.57;;
52946;SDS011;45776;40.400;17.260;2022-10-16T11:37:48;21.88;;;13.23;;
52946;SDS011;45776;40.400;17.260;2022-10-16T11:40:17;21.95;;;13.60;;
52946;SDS011;45776;40.400;17.260;2022-10-16T11:42:46;21.20;;;13.90;;
52946;SDS011;45776;40.400;17.260;2022-10-16T11:47:43;20.13;;;13.32;;
52946;SDS011;45776;40.400;17.260;2022-10-16T11:50:27;18.55;;;12.75;;
52946;SDS011;45776;40.400;17.260;2022-10-16T11:55:27;19.27;;;13.67;;
52946;SDS011;45776;40.400;17.260;2022-10-16T11:58:06;19.55;;;13.00;;
52946;SDS011;45776;40.400;17.260;2022-10-16T12:00:35;25.63;;;13.68;;
52946;SDS011;45776;40.400;17.260;2022-10-16T12:10:29;20.40;;;13.95;;
52946;SDS011;45776;40.400;17.260;2022-10-16T12:12:57;20.90;;;13.80;;
52946;SDS011;45776;40.400;17.260;2022-10-16T12:15:26;20.23;;;12.90;;
52946;SDS011;45776;40.400;17.260;2022-10-16T12:17:52;23.45;;;13.40;;
52946;SDS011;45776;40.400;17.260;2022-10-16T12:22:48;22.80;;;13.13;;
52946;SDS011;45776;40.400;17.260;2022-10-16T12:25:21;21.80;;;13.60;;
52946;SDS011;45776;40.400;17.260;2022-10-16T12:27:53;19.13;;;12.95;;
52946;SDS011;45776;40.400;17.260;2022-10-16T12:30:20;22.38;;;13.35;;
52946;SDS011;45776;40.400;17.260;2022-10-16T12:32:52;18.60;;;12.52;;
52946;SDS011;45776;40.400;17.260;2022-10-16T12:35:21;19.85;;;13.32;;
52946;SDS011;45776;40.400;17.260;2022-10-16T12:37:47;22.30;;;13.52;;
52946;SDS011;45776;40.400;17.260;2022-10-16T12:42:38;19.88;;;12.55;;
52946;SDS011;45776;40.400;17.260;2022-10-16T12:47:49;20.73;;;13.18;;
52946;SDS011;45776;40.400;17.260;2022-10-16T12:50:35;19.63;;;13.30;;
52946;SDS011;45776;40.400;17.260;2022-10-16T12:53:02;22.48;;;13.55;;
52946;SDS011;45776;40.400;17.260;2022-10-16T12:55:31;20.55;;;13.25;;
52946;SDS011;45776;40.400;17.260;2022-10-16T13:00:56;20.92;;;13.25;;
52946;SDS011;45776;40.400;17.260;2022-10-16T13:06:20;20.63;;;13.55;;
52946;SDS011;45776;40.400;17.260;2022-10-16T13:13:51;24.67;;;13.55;;
52946;SDS011;45776;40.400;17.260;2022-10-16T13:29:37;18.85;;;13.23;;
52946;SDS011;45776;40.400;17.260;2022-10-16T13:32:09;17.15;;;12.18;;
52946;SDS011;45776;40.400;17.260;2022-10-16T13:34:46;20.63;;;12.63;;
52946;SDS011;45776;40.400;17.260;2022-10-16T13:37:16;21.95;;;12.93;;
52946;SDS011;45776;40.400;17.260;2022-10-16T13:39:42;19.40;;;12.32;;
52946;SDS011;45776;40.400;17.260;2022-10-16T13:42:11;20.83;;;12.95;;
52946;SDS011;45776;40.400;17.260;2022-10-16T13:44:41;21.17;;;12.70;;
52946;SDS011;45776;40.400;17.260;2022-10-16T13:47:26;19.33;;;12.85;;
52946;SDS011;45776;40.400;17.260;2022-10-16T13:50:06;20.23;;;13.20;;
52946;SDS011;45776;40.400;17.260;2022-10-16T13:52:34;20.77;;;12.43;;
52946;SDS011;45776;40.400;17.260;2022-10-16T13:55:03;18.42;;;12.65;;
52946;SDS011;45776;40.400;17.260;2022-10-16T13:57:29;19.50;;;12.63;;
52946;SDS011;45776;40.400;17.260;2022-10-16T13:59:54;22.65;;;13.30;;
52946;SDS011;45776;40.400;17.260;2022-10-16T14:02:30;18.45;;;13.07;;
52946;SDS011;45776;40.400;17.260;2022-10-16T14:04:56;19.50;;;12.40;;
52946;SDS011;45776;40.400;17.260;2022-10-16T14:07:29;19.48;;;12.05;;
52946;SDS011;45776;40.400;17.260;2022-10-16T14:09:56;23.52;;;12.85;;
52946;SDS011;45776;40.400;17.260;2022-10-16T14:12:23;20.25;;;12.93;;
52946;SDS011;45776;40.400;17.260;2022-10-16T14:14:49;19.95;;;12.80;;
52946;SDS011;45776;40.400;17.260;2022-10-16T14:17:18;19.02;;;12.18;;
52946;SDS011;45776;40.400;17.260;2022-10-16T14:19:50;20.80;;;12.82;;
52946;SDS011;45776;40.400;17.260;2022-10-16T14:24:51;20.10;;;12.23;;
52946;SDS011;45776;40.400;17.260;2022-10-16T14:27:28;19.83;;;12.60;;
52946;SDS011;45776;40.400;17.260;2022-10-16T14:30:36;19.52;;;12.10;;
52946;SDS011;45776;40.400;17.260;2022-10-16T14:32:52;18.30;;;12.30;;
52946;SDS011;45776;40.400;17.260;2022-10-16T14:37:52;19.20;;;11.48;;
52946;SDS011;45776;40.400;17.260;2022-10-16T14:40:18;21.50;;;13.00;;
52946;SDS011;45776;40.400;17.260;2022-10-16T14:42:43;17.52;;;11.45;;
52946;SDS011;45776;40.400;17.260;2022-10-16T14:45:09;18.95;;;11.68;;
52946;SDS011;45776;40.400;17.260;2022-10-16T14:47:35;17.05;;;11.65;;
52946;SDS011;45776;40.400;17.260;2022-10-16T14:50:10;23.75;;;12.77;;
52946;SDS011;45776;40.400;17.260;2022-10-16T14:52:35;16.30;;;11.88;;
52946;SDS011;45776;40.400;17.260;2022-10-16T14:55:00;18.15;;;11.70;;
52946;SDS011;45776;40.400;17.260;2022-10-16T14:57:26;16.85;;;11.48;;
52946;SDS011;45776;40.400;17.260;2022-10-16T14:59:52;18.35;;;11.48;;
52946;SDS011;45776;40.400;17.260;2022-10-16T15:04:47;19.10;;;12.32;;
52946;SDS011;45776;40.400;17.260;2022-10-16T15:07:12;19.15;;;11.95;;
52946;SDS011;45776;40.400;17.260;2022-10-16T15:09:38;17.83;;;12.00;;
52946;SDS011;45776;40.400;17.260;2022-10-16T15:12:03;15.00;;;10.32;;
52946;SDS011;45776;40.400;17.260;2022-10-16T15:14:28;20.52;;;11.73;;
52946;SDS011;45776;40.400;17.260;2022-10-16T15:16:54;18.52;;;10.60;;
52946;SDS011;45776;40.400;17.260;2022-10-16T15:19:19;16.13;;;11.45;;
52946;SDS011;45776;40.400;17.260;2022-10-16T15:21:44;19.17;;;11.45;;
52946;SDS011;45776;40.400;17.260;2022-10-16T15:24:11;19.52;;;12.98;;
52946;SDS011;45776;40.400;17.260;2022-10-16T15:26:37;17.15;;;11.43;;
52946;SDS011;45776;40.400;17.260;2022-10-16T15:29:02;17.13;;;11.57;;
52946;SDS011;45776;40.400;17.260;2022-10-16T15:31:28;17.35;;;11.15;;
52946;SDS011;45776;40.400;17.260;2022-10-16T15:33:53;17.88;;;11.50;;
52946;SDS011;45776;40.400;17.260;2022-10-16T15:36:24;18.42;;;11.98;;
52946;SDS011;45776;40.400;17.260;2022-10-16T15:38:49;16.45;;;11.18;;
52946;SDS011;45776;40.400;17.260;2022-10-16T15:41:15;17.10;;;11.48;;
52946;SDS011;45776;40.400;17.260;2022-10-16T15:43:40;17.50;;;11.55;;
52946;SDS011;45776;40.400;17.260;2022-10-16T15:46:06;18.00;;;11.50;;
52946;SDS011;45776;40.400;17.260;2022-10-16T15:48:33;19.27;;;12.07;;
52946;SDS011;45776;40.400;17.260;2022-10-16T15:50:59;22.17;;;12.50;;
52946;SDS011;45776;40.400;17.260;2022-10-16T15:53:24;17.38;;;11.88;;
52946;SDS011;45776;40.400;17.260;2022-10-16T15:55:50;17.48;;;11.50;;
52946;SDS011;45776;40.400;17.260;2022-10-16T15:58:15;17.15;;;10.95;;
52946;SDS011;45776;40.400;17.260;2022-10-16T16:00:41;18.23;;;11.75;;
52946;SDS011;45776;40.400;17.260;2022-10-16T16:03:06;18.33;;;12.48;;
52946;SDS011;45776;40.400;17.260;2022-10-16T16:05:31;23.02;;;12.57;;
52946;SDS011;45776;40.400;17.260;2022-10-16T16:07:58;23.08;;;12.55;;
52946;SDS011;45776;40.400;17.260;2022-10-16T16:10:23;19.42;;;12.55;;
52946;SDS011;45776;40.400;17.260;2022-10-16T16:12:49;18.98;;;12.30;;
52946;SDS011;45776;40.400;17.260;2022-10-16T16:15:17;21.77;;;12.63;;
52946;SDS011;45776;40.400;17.260;2022-10-16T16:17:43;19.27;;;12.00;;
52946;SDS011;45776;40.400;17.260;2022-10-16T16:20:09;19.90;;;12.38;;
52946;SDS011;45776;40.400;17.260;2022-10-16T16:22:34;20.70;;;12.43;;
52946;SDS011;45776;40.400;17.260;2022-10-16T16:25:00;21.38;;;13.00;;